Time;durP1;ratioP1;P1;durP2;ratioP2;P2;SDS_P1;SDS_P2;PMS_P1;PMS_P2;Temp;Humidity;BMP_temperature;BMP_pressure;BME280_temperature;BME280_humidity;BME280_pressure;Samples;Min_cycle;Max_cycle;Signal;HPM_P1;HPM_P2
2021/10/19 00:00:05;;;;;;;22.73;18.48;;;15.40;92.60;;;;;;5009358;28;20407;-71
2021/10/19 00:02:31;;;;;;;20.15;18.02;;;15.40;92.70;;;;;;5004373;28;20042;-75
2021/10/19 00:04:57;;;;;;;21.17;17.80;;;15.40;92.70;;;;;;5006721;28;20068;-72
2021/10/19 00:07:23;;;;;;;20.73;18.02;;;15.40;92.80;;;;;;5006376;28;20414;-71
2021/10/19 00:09:48;;;;;;;22.80;18.08;;;15.40;92.80;;;;;;5005089;28;20060;-72
2021/10/19 00:12:14;;;;;;;20.60;17.20;;;15.40;92.70;;;;;;5000638;28;20346;-73
2021/10/19 00:14:40;;;;;;;22.40;17.75;;;15.40;92.80;;;;;;5007461;28;20041;-72
2021/10/19 00:17:05;;;;;;;20.20;16.88;;;15.40;92.80;;;;;;5006899;28;20033;-72
2021/10/19 00:19:33;;;;;;;19.20;16.77;;;15.40;92.70;;;;;;5006938;28;20420;-71
2021/10/19 00:21:58;;;;;;;18.52;15.75;;;15.40;92.70;;;;;;5003170;28;20066;-72
2021/10/19 00:24:24;;;;;;;18.75;15.60;;;15.40;92.80;;;;;;5000350;28;20709;-72
2021/10/19 00:26:50;;;;;;;20.58;17.00;;;15.40;92.80;;;;;;5001890;28;20026;-72
2021/10/19 00:29:16;;;;;;;20.10;16.90;;;15.40;92.80;;;;;;5005371;28;20026;-71
2021/10/19 00:31:41;;;;;;;18.85;16.77;;;15.40;92.80;;;;;;5008578;28;20040;-72
2021/10/19 00:34:07;;;;;;;21.35;17.85;;;15.40;92.90;;;;;;5009184;28;20026;-72
2021/10/19 00:36:33;;;;;;;22.02;18.13;;;15.40;92.90;;;;;;5008121;28;20034;-72
2021/10/19 00:38:58;;;;;;;21.83;17.85;;;15.40;92.90;;;;;;5009447;28;20042;-71
2021/10/19 00:41:24;;;;;;;23.95;18.08;;;15.40;93.00;;;;;;5009249;28;20026;-71
2021/10/19 00:43:51;;;;;;;20.48;17.63;;;15.40;93.00;;;;;;5011154;28;20037;-71
2021/10/19 00:46:17;;;;;;;23.77;17.90;;;15.40;93.00;;;;;;5003683;28;20608;-71
2021/10/19 00:48:46;;;;;;;23.73;18.92;;;15.40;93.00;;;;;;5005277;28;20117;-72
2021/10/19 00:51:13;;;;;;;20.27;17.20;;;15.40;93.10;;;;;;5006504;28;20026;-71
2021/10/19 00:53:39;;;;;;;20.73;16.90;;;15.40;93.20;;;;;;5010943;28;20038;-71
2021/10/19 00:56:09;;;;;;;22.83;17.60;;;15.40;93.30;;;;;;5008427;28;20027;-71
2021/10/19 00:58:39;;;;;;;21.10;17.45;;;15.40;93.40;;;;;;5008224;28;20041;-72
2021/10/19 01:01:05;;;;;;;19.63;16.88;;;15.40;93.40;;;;;;5008574;28;20038;-74
2021/10/19 01:03:31;;;;;;;19.92;16.98;;;15.30;93.50;;;;;;5012989;28;20046;-71
2021/10/19 01:05:59;;;;;;;19.75;16.92;;;15.30;93.50;;;;;;5006461;28;20033;-71
2021/10/19 01:08:25;;;;;;;20.55;16.52;;;15.40;93.60;;;;;;5009042;28;20030;-72
2021/10/19 01:10:51;;;;;;;19.90;16.25;;;15.40;93.60;;;;;;5006902;28;20113;-71
2021/10/19 01:13:17;;;;;;;20.40;16.55;;;15.30;93.60;;;;;;5008214;28;20034;-71
2021/10/19 01:15:45;;;;;;;22.35;17.52;;;15.30;93.60;;;;;;5006824;28;20363;-71
2021/10/19 01:18:15;;;;;;;18.23;15.93;;;15.40;93.70;;;;;;5007357;28;20462;-71
2021/10/19 01:20:41;;;;;;;18.77;15.50;;;15.30;93.80;;;;;;5010763;28;20041;-72
2021/10/19 01:23:07;;;;;;;18.98;15.88;;;15.30;93.70;;;;;;5004792;28;20041;-74
2021/10/19 01:25:33;;;;;;;20.27;14.82;;;15.40;93.80;;;;;;5010092;28;20029;-73
2021/10/19 01:28:05;;;;;;;20.88;14.90;;;15.30;93.80;;;;;;5012622;28;20025;-72
2021/10/19 01:30:32;;;;;;;17.95;15.50;;;15.40;93.90;;;;;;5003770;28;20140;-74
2021/10/19 01:32:58;;;;;;;19.35;16.30;;;15.30;93.90;;;;;;5008034;28;20485;-72
2021/10/19 01:35:42;;;;;;;18.77;16.20;;;15.30;93.90;;;;;;5008461;28;20080;-72
2021/10/19 01:38:12;;;;;;;17.97;15.77;;;15.40;93.90;;;;;;5008106;28;20046;-74
2021/10/19 01:40:38;;;;;;;20.75;16.65;;;15.40;93.90;;;;;;5011878;28;20034;-71
2021/10/19 01:43:15;;;;;;;21.52;16.23;;;15.40;93.90;;;;;;5005505;28;20041;-71
2021/10/19 01:45:41;;;;;;;19.80;15.60;;;15.40;93.90;;;;;;5007425;28;20470;-71
2021/10/19 01:48:08;;;;;;;20.05;16.85;;;15.40;93.90;;;;;;5007843;28;20050;-71
2021/10/19 01:50:34;;;;;;;17.67;15.77;;;15.40;94.00;;;;;;5008119;28;20042;-73
2021/10/19 01:53:00;;;;;;;19.35;15.88;;;15.40;93.90;;;;;;5007235;28;20097;-72
2021/10/19 01:55:26;;;;;;;19.30;16.05;;;15.40;93.90;;;;;;5009826;28;20083;-72
2021/10/19 01:57:51;;;;;;;18.70;15.68;;;15.40;94.00;;;;;;5010955;28;20037;-72
2021/10/19 02:00:17;;;;;;;19.73;15.90;;;15.50;93.90;;;;;;5011723;28;20091;-72
2021/10/19 02:02:43;;;;;;;17.95;15.75;;;15.50;94.00;;;;;;5009323;28;20465;-72
2021/10/19 02:05:10;;;;;;;18.73;16.48;;;15.40;94.00;;;;;;5007229;28;20057;-74
2021/10/19 02:07:37;;;;;;;22.42;17.73;;;15.50;94.00;;;;;;5008169;28;20030;-73
2021/10/19 02:10:04;;;;;;;22.70;18.83;;;15.50;94.00;;;;;;5006711;28;20026;-71
2021/10/19 02:12:30;;;;;;;19.33;17.23;;;15.50;94.00;;;;;;5006796;28;20112;-74
2021/10/19 02:14:56;;;;;;;20.45;17.88;;;15.50;94.00;;;;;;5008360;28;20404;-71
2021/10/19 02:17:22;;;;;;;20.65;17.50;;;15.50;94.00;;;;;;5007750;28;20070;-71
2021/10/19 02:19:48;;;;;;;19.50;17.40;;;15.50;94.00;;;;;;5009163;28;20092;-71
2021/10/19 02:22:13;;;;;;;19.38;17.15;;;15.50;94.00;;;;;;5006606;28;20049;-71
2021/10/19 02:24:39;;;;;;;20.48;18.02;;;15.50;94.00;;;;;;5005716;28;20026;-71
2021/10/19 02:27:05;;;;;;;19.92;17.75;;;15.60;94.00;;;;;;5005109;28;20060;-71
2021/10/19 02:29:30;;;;;;;19.83;17.55;;;15.60;94.10;;;;;;5010369;28;20374;-71
2021/10/19 02:31:56;;;;;;;21.73;19.02;;;15.60;94.10;;;;;;5007206;28;20121;-72
2021/10/19 02:34:22;;;;;;;21.90;19.23;;;15.60;94.10;;;;;;5004987;28;20033;-71
2021/10/19 02:36:48;;;;;;;21.08;18.10;;;15.60;94.10;;;;;;5008164;28;20392;-71
2021/10/19 02:39:14;;;;;;;23.02;19.40;;;15.60;94.10;;;;;;5006933;28;20053;-72
2021/10/19 02:41:40;;;;;;;23.90;19.58;;;15.60;94.10;;;;;;5008412;28;20378;-71
2021/10/19 02:44:06;;;;;;;20.08;17.95;;;15.60;94.20;;;;;;5003840;28;20029;-71
2021/10/19 02:46:32;;;;;;;20.95;18.35;;;15.60;94.20;;;;;;5004317;28;20033;-71
2021/10/19 02:48:59;;;;;;;20.58;18.38;;;15.60;94.20;;;;;;5006534;28;20072;-71
2021/10/19 02:51:24;;;;;;;21.13;18.88;;;15.60;94.20;;;;;;5007551;28;20126;-71
2021/10/19 02:53:50;;;;;;;22.33;19.80;;;15.60;94.20;;;;;;5006591;28;20109;-72
2021/10/19 02:56:16;;;;;;;20.85;18.65;;;15.60;94.30;;;;;;5004642;28;20038;-72
2021/10/19 02:58:42;;;;;;;22.75;18.80;;;15.60;94.30;;;;;;5009689;28;20053;-71
2021/10/19 03:01:08;;;;;;;21.20;18.90;;;15.60;94.20;;;;;;5002569;28;20029;-72
2021/10/19 03:03:33;;;;;;;20.77;17.63;;;15.60;94.20;;;;;;5006614;28;20037;-71
2021/10/19 03:05:59;;;;;;;20.70;17.48;;;15.60;94.30;;;;;;5010073;28;20204;-73
2021/10/19 03:08:25;;;;;;;20.35;17.63;;;15.60;94.40;;;;;;4998927;28;20076;-71
2021/10/19 03:10:51;;;;;;;19.63;17.50;;;15.60;94.40;;;;;;5002809;28;20492;-74
2021/10/19 03:13:17;;;;;;;20.90;17.63;;;15.60;94.40;;;;;;4999709;28;20535;-71
2021/10/19 03:15:42;;;;;;;19.38;17.27;;;15.60;94.40;;;;;;5006768;28;20038;-72
2021/10/19 03:18:08;;;;;;;19.98;17.70;;;15.60;94.40;;;;;;5005971;28;20116;-72
2021/10/19 03:20:34;;;;;;;20.35;17.13;;;15.70;94.40;;;;;;5005315;28;20100;-70
2021/10/19 03:23:00;;;;;;;19.42;17.42;;;15.70;94.40;;;;;;5001120;28;20077;-71
2021/10/19 03:25:26;;;;;;;20.23;17.55;;;15.70;94.40;;;;;;4999082;28;20041;-71
2021/10/19 03:27:52;;;;;;;19.67;17.00;;;15.70;94.40;;;;;;5004583;28;20044;-72
2021/10/19 03:30:18;;;;;;;19.58;17.55;;;15.70;94.40;;;;;;5004354;28;20354;-72
2021/10/19 03:32:43;;;;;;;19.80;17.67;;;15.80;94.50;;;;;;5004759;28;20080;-72
2021/10/19 03:35:10;;;;;;;19.23;17.33;;;15.70;94.40;;;;;;5006199;28;20022;-72
2021/10/19 03:37:36;;;;;;;21.95;18.90;;;15.70;94.40;;;;;;5007397;28;20046;-72
2021/10/19 03:40:02;;;;;;;19.63;17.58;;;15.80;94.50;;;;;;5002164;28;20030;-71
2021/10/19 03:42:28;;;;;;;19.92;17.83;;;15.80;94.50;;;;;;5006643;28;20038;-71
2021/10/19 03:44:53;;;;;;;20.42;18.23;;;15.80;94.40;;;;;;5004823;28;20354;-71
2021/10/19 03:47:19;;;;;;;19.70;17.70;;;15.80;94.40;;;;;;5004362;28;20362;-71
2021/10/19 03:49:45;;;;;;;21.90;18.38;;;15.90;94.40;;;;;;5006274;28;20026;-71
2021/10/19 03:52:10;;;;;;;23.05;18.27;;;15.90;94.40;;;;;;5005604;28;20050;-72
2021/10/19 03:54:36;;;;;;;20.35;18.25;;;15.90;94.40;;;;;;5001836;28;20416;-71
2021/10/19 03:57:05;;;;;;;19.25;17.17;;;15.90;94.40;;;;;;5006633;28;20725;-72
2021/10/19 03:59:31;;;;;;;21.15;18.83;;;15.90;94.40;;;;;;5003967;28;20034;-73
2021/10/19 04:01:57;;;;;;;19.80;17.05;;;15.90;94.40;;;;;;5006584;28;20037;-71
2021/10/19 04:04:23;;;;;;;20.05;17.88;;;16.00;94.40;;;;;;5022232;28;20034;-71
2021/10/19 04:06:48;;;;;;;21.50;18.45;;;16.00;94.40;;;;;;5009938;28;20034;-71
2021/10/19 04:09:14;;;;;;;22.33;18.75;;;16.00;94.40;;;;;;5011349;28;20033;-75
2021/10/19 04:11:40;;;;;;;20.85;18.60;;;15.90;94.40;;;;;;5010055;28;20108;-71
2021/10/19 04:14:06;;;;;;;21.02;17.63;;;16.00;94.40;;;;;;5010923;28;20060;-72
2021/10/19 04:16:34;;;;;;;20.77;18.58;;;15.90;94.40;;;;;;5007805;28;20704;-71
2021/10/19 04:19:00;;;;;;;21.92;19.63;;;15.90;94.50;;;;;;5010167;28;20417;-71
2021/10/19 04:21:26;;;;;;;22.17;19.83;;;16.00;94.60;;;;;;5005871;28;20080;-72
2021/10/19 04:23:52;;;;;;;23.80;19.67;;;16.00;94.50;;;;;;5006812;28;20413;-73
2021/10/19 04:26:17;;;;;;;21.90;19.30;;;16.00;94.60;;;;;;5020615;28;20050;-71
2021/10/19 04:28:44;;;;;;;23.35;20.40;;;16.00;94.60;;;;;;5002363;28;20127;-72
2021/10/19 04:31:10;;;;;;;25.45;22.10;;;16.00;94.60;;;;;;5016976;28;20030;-71
2021/10/19 04:33:39;;;;;;;24.38;21.63;;;16.00;94.60;;;;;;5005192;28;20062;-71
2021/10/19 04:36:07;;;;;;;24.98;22.23;;;16.00;94.60;;;;;;5000910;28;20053;-73
2021/10/19 04:38:35;;;;;;;24.90;22.15;;;16.00;94.70;;;;;;5006592;28;20053;-72
2021/10/19 04:41:02;;;;;;;27.85;24.35;;;16.00;94.70;;;;;;5002597;28;20525;-72
2021/10/19 04:43:27;;;;;;;26.63;23.77;;;16.00;94.70;;;;;;5004201;28;20050;-71
2021/10/19 04:45:53;;;;;;;25.95;23.27;;;16.00;94.80;;;;;;5009047;28;20429;-71
2021/10/19 04:48:21;;;;;;;27.65;23.67;;;16.10;94.70;;;;;;5003884;28;20069;-71
2021/10/19 04:50:47;;;;;;;28.02;22.48;;;16.00;94.70;;;;;;5005295;28;20034;-72
2021/10/19 04:53:13;;;;;;;26.67;22.42;;;16.00;94.70;;;;;;4999102;28;20068;-72
2021/10/19 04:55:39;;;;;;;25.25;22.55;;;16.10;94.70;;;;;;5004758;28;20430;-72
2021/10/19 04:58:04;;;;;;;25.98;23.08;;;16.10;94.70;;;;;;5002522;28;20113;-71
2021/10/19 05:00:30;;;;;;;24.73;22.13;;;16.00;94.80;;;;;;5005148;28;20092;-71
2021/10/19 05:02:57;;;;;;;26.38;22.75;;;16.00;94.70;;;;;;5004585;28;20639;-71
2021/10/19 05:05:23;;;;;;;27.55;23.90;;;16.10;94.70;;;;;;5006488;28;20033;-71
2021/10/19 05:07:48;;;;;;;27.33;23.50;;;16.10;94.70;;;;;;5007995;28;20454;-71
2021/10/19 05:10:15;;;;;;;26.77;22.83;;;16.10;94.70;;;;;;5005284;28;20053;-73
2021/10/19 05:12:40;;;;;;;25.83;23.02;;;16.10;94.70;;;;;;5005999;28;20141;-71
2021/10/19 05:15:08;;;;;;;27.20;22.77;;;16.10;94.70;;;;;;5005288;28;20109;-72
2021/10/19 05:17:33;;;;;;;22.27;19.90;;;16.10;94.70;;;;;;5002144;28;20110;-71
2021/10/19 05:19:59;;;;;;;25.02;20.67;;;16.10;94.70;;;;;;4999832;28;20109;-72
2021/10/19 05:22:25;;;;;;;25.55;21.65;;;16.10;94.70;;;;;;5000216;28;20052;-73
2021/10/19 05:24:51;;;;;;;24.17;20.42;;;16.10;94.70;;;;;;5011794;28;20758;-71
2021/10/19 05:27:17;;;;;;;23.85;20.52;;;16.10;94.70;;;;;;5002537;28;20103;-73
2021/10/19 05:29:43;;;;;;;22.23;19.50;;;16.10;94.70;;;;;;5002511;28;20030;-72
2021/10/19 05:32:09;;;;;;;24.90;21.35;;;16.10;94.80;;;;;;5003831;28;20044;-72
2021/10/19 05:34:34;;;;;;;22.98;20.50;;;16.10;94.80;;;;;;5006538;28;20034;-72
2021/10/19 05:37:00;;;;;;;23.42;20.40;;;16.10;94.80;;;;;;5005281;28;20381;-72
2021/10/19 05:39:26;;;;;;;23.88;20.65;;;16.10;94.80;;;;;;5004375;28;20069;-72
2021/10/19 05:41:51;;;;;;;20.85;18.63;;;16.20;94.80;;;;;;5007785;28;20092;-69
2021/10/19 05:44:17;;;;;;;22.42;19.52;;;16.20;94.80;;;;;;5008238;28;20716;-70
2021/10/19 05:46:43;;;;;;;20.75;18.63;;;16.20;94.80;;;;;;5007799;28;20129;-70
2021/10/19 05:49:08;;;;;;;21.13;18.35;;;16.20;94.80;;;;;;5008460;28;20080;-72
2021/10/19 05:51:34;;;;;;;21.00;18.90;;;16.20;94.80;;;;;;5008610;28;20034;-74
2021/10/19 05:54:00;;;;;;;20.08;17.98;;;16.20;94.80;;;;;;5008551;28;20121;-69
2021/10/19 05:56:26;;;;;;;20.48;18.02;;;16.30;94.90;;;;;;5010148;28;20380;-69
2021/10/19 05:58:51;;;;;;;20.80;18.58;;;16.30;94.80;;;;;;5009478;28;20354;-70
2021/10/19 06:01:17;;;;;;;22.00;18.85;;;16.30;94.80;;;;;;5008433;28;20064;-69
2021/10/19 06:03:43;;;;;;;20.50;17.92;;;16.30;94.70;;;;;;5003987;28;20355;-71
2021/10/19 06:06:11;;;;;;;19.73;16.75;;;16.30;94.70;;;;;;5008867;28;20026;-70
2021/10/19 06:08:37;;;;;;;19.80;17.55;;;16.30;94.70;;;;;;5006802;28;20053;-71
2021/10/19 06:11:03;;;;;;;20.00;17.05;;;16.30;94.70;;;;;;5004297;28;20066;-70
2021/10/19 06:13:29;;;;;;;20.10;17.30;;;16.30;94.70;;;;;;5007110;28;20060;-70
2021/10/19 06:15:55;;;;;;;20.88;18.55;;;16.40;94.80;;;;;;5005053;28;20088;-70
2021/10/19 06:18:21;;;;;;;20.63;17.17;;;16.40;94.70;;;;;;4998911;28;20113;-70
2021/10/19 06:20:49;;;;;;;22.23;17.10;;;16.30;94.70;;;;;;5005461;28;20030;-70
2021/10/19 06:23:16;;;;;;;22.00;17.70;;;16.40;94.70;;;;;;5006767;28;20355;-69
2021/10/19 06:25:41;;;;;;;20.35;17.00;;;16.30;94.70;;;;;;5002453;28;20026;-72
2021/10/19 06:28:07;;;;;;;20.73;16.90;;;16.40;94.80;;;;;;5011337;28;20032;-70
2021/10/19 06:30:34;;;;;;;20.45;17.17;;;16.40;94.70;;;;;;5006701;28;20046;-70
2021/10/19 06:32:59;;;;;;;22.60;18.52;;;16.40;94.80;;;;;;5004368;28;20045;-73
2021/10/19 06:35:25;;;;;;;23.73;18.85;;;16.50;94.70;;;;;;5004659;28;20092;-71
2021/10/19 06:37:51;;;;;;;21.92;18.20;;;16.40;94.80;;;;;;5007526;28;20197;-70
2021/10/19 06:40:16;;;;;;;23.13;18.63;;;16.40;94.80;;;;;;5005280;28;20026;-71
2021/10/19 06:42:42;;;;;;;20.88;18.02;;;16.40;94.80;;;;;;5004672;28;20038;-70
2021/10/19 06:45:09;;;;;;;26.08;19.88;;;16.50;94.80;;;;;;5001845;28;20026;-74
2021/10/19 06:47:34;;;;;;;24.98;19.23;;;16.40;94.80;;;;;;5003346;28;20358;-74
2021/10/19 06:50:01;;;;;;;23.52;18.70;;;16.40;94.80;;;;;;4999775;28;20037;-71
2021/10/19 06:52:29;;;;;;;25.33;20.27;;;16.50;94.80;;;;;;5005273;28;20522;-70
2021/10/19 06:54:54;;;;;;;26.27;19.50;;;16.50;94.90;;;;;;5006179;28;20041;-73
2021/10/19 06:57:20;;;;;;;29.02;21.08;;;16.50;94.90;;;;;;4999317;28;20370;-70
2021/10/19 06:59:46;;;;;;;29.08;21.98;;;16.50;94.90;;;;;;5013443;28;20064;-70
2021/10/19 07:02:12;;;;;;;28.83;21.25;;;16.50;94.90;;;;;;5006375;28;20053;-72
2021/10/19 07:04:37;;;;;;;32.53;22.17;;;16.50;94.90;;;;;;5010780;28;20038;-75
2021/10/19 07:07:03;;;;;;;29.27;22.42;;;16.60;94.90;;;;;;5005930;28;20041;-70
2021/10/19 07:09:29;;;;;;;30.60;23.63;;;16.60;95.00;;;;;;5021485;28;20037;-72
2021/10/19 07:11:55;;;;;;;33.03;24.13;;;16.60;94.90;;;;;;5005592;28;20034;-70
2021/10/19 07:14:21;;;;;;;30.95;23.80;;;16.60;94.90;;;;;;5017261;28;20476;-70
2021/10/19 07:16:47;;;;;;;32.60;23.92;;;16.60;94.90;;;;;;5008490;28;20589;-71
2021/10/19 07:19:12;;;;;;;30.17;23.55;;;16.60;94.90;;;;;;5006038;28;20369;-72
2021/10/19 07:21:38;;;;;;;35.25;25.15;;;16.70;94.90;;;;;;5006028;28;20387;-70
2021/10/19 07:24:05;;;;;;;31.90;24.55;;;16.60;94.90;;;;;;5006242;28;20392;-70
2021/10/19 07:26:31;;;;;;;33.38;24.80;;;16.70;94.90;;;;;;5004499;28;20465;-70
2021/10/19 07:28:57;;;;;;;33.17;24.77;;;16.70;94.90;;;;;;5010603;28;20461;-70
2021/10/19 07:31:23;;;;;;;33.42;24.08;;;16.70;94.90;;;;;;5003636;28;20116;-74
2021/10/19 07:33:49;;;;;;;35.58;24.73;;;16.70;94.80;;;;;;5000975;28;20069;-71
2021/10/19 07:36:15;;;;;;;34.53;24.55;;;16.80;94.80;;;;;;5004613;28;20033;-70
2021/10/19 07:38:40;;;;;;;33.80;24.20;;;16.80;94.80;;;;;;5003957;28;20054;-71
2021/10/19 07:41:06;;;;;;;32.83;24.42;;;16.80;94.80;;;;;;5001229;28;20041;-71
2021/10/19 07:43:32;;;;;;;35.95;25.13;;;16.80;94.80;;;;;;5014086;28;20435;-71
2021/10/19 07:45:58;;;;;;;30.52;23.88;;;16.90;94.70;;;;;;5009417;28;20058;-71
2021/10/19 07:48:24;;;;;;;31.55;22.77;;;16.90;94.70;;;;;;5006529;28;20032;-76
2021/10/19 07:50:49;;;;;;;32.13;24.25;;;16.90;94.70;;;;;;5008745;28;20471;-71
2021/10/19 07:53:16;;;;;;;30.85;23.15;;;16.90;94.60;;;;;;5004382;28;20069;-70
2021/10/19 07:55:43;;;;;;;30.05;22.55;;;17.00;94.60;;;;;;5003602;28;20428;-70
2021/10/19 07:58:09;;;;;;;32.33;23.48;;;17.00;94.50;;;;;;5008562;28;20396;-73
2021/10/19 08:00:35;;;;;;;29.88;22.63;;;17.00;94.50;;;;;;5009006;28;20022;-71
2021/10/19 08:03:01;;;;;;;30.75;21.67;;;17.10;94.50;;;;;;5008778;28;20364;-73
2021/10/19 08:05:29;;;;;;;28.35;21.58;;;17.10;94.50;;;;;;5008694;28;20953;-71
2021/10/19 08:08:23;;;;;;;29.67;21.30;;;17.10;94.50;;;;;;5003707;28;20041;-70
2021/10/19 08:10:49;;;;;;;32.13;21.80;;;17.10;94.50;;;;;;5001094;28;20528;-70
2021/10/19 08:13:17;;;;;;;28.48;20.27;;;17.20;94.40;;;;;;5010274;28;20030;-73
2021/10/19 08:15:43;;;;;;;26.58;19.95;;;17.20;94.30;;;;;;5008504;28;20038;-71
2021/10/19 08:18:09;;;;;;;28.00;19.38;;;17.30;94.20;;;;;;5009225;28;20136;-70
2021/10/19 08:20:36;;;;;;;28.02;19.40;;;17.30;94.10;;;;;;5008268;28;20060;-71
2021/10/19 08:23:02;;;;;;;27.10;19.10;;;17.40;94.00;;;;;;5004031;28;20026;-72
2021/10/19 08:25:28;;;;;;;26.20;18.50;;;17.40;94.00;;;;;;5010062;28;20030;-73
2021/10/19 08:27:53;;;;;;;24.15;18.20;;;17.40;93.90;;;;;;5009719;28;20367;-71
2021/10/19 08:30:20;;;;;;;23.73;17.73;;;17.50;93.80;;;;;;5009293;28;20366;-72
2021/10/19 08:32:48;;;;;;;26.55;18.35;;;17.60;93.70;;;;;;5008472;28;20053;-71
2021/10/19 08:35:22;;;;;;;21.67;17.33;;;17.60;93.60;;;;;;5006520;28;20039;-72
2021/10/19 08:37:48;;;;;;;;;;;17.60;93.50;;;;;;5008702;28;20045;-71
2021/10/19 08:40:14;;;;;;;24.55;16.77;;;17.60;93.40;;;;;;5010175;28;19913;-73
2021/10/19 08:42:44;;;;;;;24.33;17.33;;;17.70;93.40;;;;;;5009025;28;20527;-72
2021/10/19 08:45:16;;;;;;;21.30;16.88;;;17.70;93.20;;;;;;5006010;28;20412;-72
2021/10/19 08:47:43;;;;;;;25.67;16.13;;;17.70;93.10;;;;;;5010036;28;20481;-72
2021/10/19 08:50:11;;;;;;;21.58;15.38;;;17.70;93.10;;;;;;5011110;28;20022;-71
2021/10/19 08:52:37;;;;;;;21.25;15.10;;;17.70;93.00;;;;;;5008766;28;20485;-71
2021/10/19 08:55:04;;;;;;;22.30;14.90;;;17.70;93.00;;;;;;5009751;28;20037;-72
2021/10/19 08:57:29;;;;;;;21.35;15.00;;;17.70;92.90;;;;;;5010242;28;20026;-72
2021/10/19 08:59:56;;;;;;;20.20;14.27;;;17.80;92.90;;;;;;5009642;28;20034;-72
2021/10/19 09:02:39;;;;;;;23.25;14.52;;;17.80;92.90;;;;;;5008627;28;20053;-72
2021/10/19 09:05:16;;;;;;;18.40;14.20;;;17.80;92.90;;;;;;5002635;28;20053;-73
2021/10/19 09:08:02;;;;;;;18.77;13.80;;;17.70;92.90;;;;;;5010257;28;20042;-72
2021/10/19 09:10:41;;;;;;;20.13;14.35;;;17.70;92.90;;;;;;5008761;28;20108;-74
2021/10/19 09:13:16;;;;;;;20.10;13.85;;;17.70;93.10;;;;;;5012173;28;20200;-73
2021/10/19 09:15:43;;;;;;;19.80;14.15;;;17.70;93.20;;;;;;5008374;28;20026;-71
2021/10/19 09:18:12;;;;;;;19.25;15.13;;;17.70;93.40;;;;;;5009637;28;20081;-70
2021/10/19 09:20:43;;;;;;;19.45;14.23;;;17.70;93.40;;;;;;5004436;28;20022;-71
2021/10/19 09:23:13;;;;;;;19.13;14.43;;;17.70;93.50;;;;;;5006441;28;20034;-72
2021/10/19 09:25:43;;;;;;;20.95;15.05;;;17.70;93.50;;;;;;5006884;28;20021;-73
2021/10/19 09:28:12;;;;;;;20.45;14.88;;;17.70;93.50;;;;;;5010653;28;20036;-73
2021/10/19 09:30:49;;;;;;;21.65;14.43;;;17.70;93.50;;;;;;5007892;28;20034;-75
2021/10/19 09:33:17;;;;;;;20.08;14.50;;;17.70;93.50;;;;;;5006000;28;20076;-73
2021/10/19 09:35:47;;;;;;;17.60;14.65;;;17.70;93.60;;;;;;5001768;28;20373;-73
2021/10/19 09:38:13;;;;;;;17.83;14.55;;;17.80;93.60;;;;;;5008771;28;20076;-74
2021/10/19 09:40:58;;;;;;;19.70;13.65;;;17.80;93.60;;;;;;5001953;28;20113;-72
2021/10/19 09:43:26;;;;;;;18.00;12.63;;;17.80;93.70;;;;;;5008845;28;20500;-75
2021/10/19 09:45:55;;;;;;;16.80;12.98;;;17.80;93.60;;;;;;5021850;28;20030;-73
2021/10/19 09:48:27;;;;;;;16.60;12.02;;;17.70;93.60;;;;;;5005910;28;20042;-72
2021/10/19 09:50:53;;;;;;;16.80;12.82;;;17.70;93.60;;;;;;5009926;28;20156;-74
2021/10/19 09:53:22;;;;;;;16.70;12.57;;;17.80;93.80;;;;;;5002785;28;20049;-73
2021/10/19 09:55:52;;;;;;;18.95;12.90;;;17.80;93.80;;;;;;5008901;28;20030;-73
2021/10/19 09:58:19;;;;;;;18.40;12.52;;;17.80;93.80;;;;;;5009144;28;20120;-73
2021/10/19 10:00:45;;;;;;;17.02;12.10;;;17.80;93.80;;;;;;5008615;28;20061;-72
2021/10/19 10:03:12;;;;;;;18.23;13.27;;;17.80;93.80;;;;;;5006392;28;20100;-75
2021/10/19 10:05:39;;;;;;;18.08;12.80;;;17.80;93.80;;;;;;5010992;28;20038;-71
2021/10/19 10:08:08;;;;;;;17.48;12.63;;;17.90;93.80;;;;;;5007901;28;20076;-72
2021/10/19 10:10:34;;;;;;;17.63;11.93;;;17.90;93.80;;;;;;5009701;28;20462;-71
2021/10/19 10:12:59;;;;;;;18.05;12.38;;;18.00;93.90;;;;;;5008516;28;20041;-74
2021/10/19 10:15:27;;;;;;;16.30;12.43;;;18.10;93.80;;;;;;5006760;28;20037;-72
2021/10/19 10:18:00;;;;;;;15.98;11.98;;;18.00;93.60;;;;;;5011002;28;20045;-73
2021/10/19 10:20:32;;;;;;;15.40;11.15;;;18.00;93.70;;;;;;5007803;28;20034;-71
2021/10/19 10:22:58;;;;;;;16.63;12.73;;;18.10;93.60;;;;;;5011507;28;20034;-73
2021/10/19 10:25:25;;;;;;;15.20;12.05;;;18.10;93.60;;;;;;5010016;28;20049;-72
2021/10/19 10:27:51;;;;;;;15.68;11.75;;;18.10;93.40;;;;;;5012582;28;20542;-72
2021/10/19 10:30:25;;;;;;;17.17;13.05;;;18.10;93.50;;;;;;5006744;28;20026;-73
2021/10/19 10:32:54;;;;;;;14.30;11.65;;;18.20;93.50;;;;;;5004035;28;20042;-73
2021/10/19 10:35:23;;;;;;;15.52;11.88;;;18.40;93.60;;;;;;5003227;28;20026;-72
2021/10/19 10:37:55;;;;;;;14.30;11.55;;;18.50;93.40;;;;;;5006855;28;20485;-72
2021/10/19 10:40:40;;;;;;;16.10;11.50;;;18.60;93.10;;;;;;5006952;28;20429;-73
2021/10/19 10:43:26;;;;;;;14.18;10.40;;;18.60;93.00;;;;;;5006336;28;20412;-77
2021/10/19 10:46:19;;;;;;;12.23;9.50;;;18.60;92.60;;;;;;5005111;28;20029;-74
2021/10/19 10:48:45;;;;;;;12.90;9.80;;;18.60;92.60;;;;;;5007727;28;20041;-72
2021/10/19 10:51:13;;;;;;;13.63;8.73;;;18.70;92.40;;;;;;5006995;28;20412;-76
2021/10/19 10:53:46;;;;;;;13.77;9.48;;;18.70;92.30;;;;;;5022124;28;20076;-71
2021/10/19 10:56:13;;;;;;;12.48;8.85;;;18.80;92.20;;;;;;5008197;28;20125;-71
2021/10/19 10:58:41;;;;;;;11.70;8.93;;;18.70;92.10;;;;;;5005754;28;20559;-72
2021/10/19 11:01:19;;;;;;;12.32;8.18;;;18.60;92.00;;;;;;5008024;28;20025;-72
2021/10/19 11:03:47;;;;;;;12.38;8.38;;;18.70;92.10;;;;;;5019073;28;20117;-75
2021/10/19 11:06:15;;;;;;;10.25;7.97;;;18.60;92.00;;;;;;5008192;28;20038;-79
2021/10/19 11:08:42;;;;;;;11.30;7.68;;;18.60;92.10;;;;;;5006829;28;20038;-73
2021/10/19 11:11:15;;;;;;;11.85;8.40;;;18.60;92.10;;;;;;5011105;28;20370;-73
2021/10/19 11:13:55;;;;;;;13.18;8.30;;;18.60;92.10;;;;;;5005036;28;20038;-77
2021/10/19 11:16:36;;;;;;;11.65;8.43;;;18.60;92.20;;;;;;5006640;28;20042;-73
2021/10/19 11:19:05;;;;;;;12.40;8.80;;;18.60;92.10;;;;;;5017577;28;20113;-73
2021/10/19 11:21:32;;;;;;;13.30;8.60;;;18.60;92.10;;;;;;4999680;28;20053;-73
2021/10/19 11:23:58;;;;;;;11.80;8.25;;;18.60;92.00;;;;;;5004034;28;20050;-72
2021/10/19 11:26:24;;;;;;;10.68;8.30;;;18.60;92.10;;;;;;5002423;28;20121;-76
2021/10/19 11:28:53;;;;;;;13.45;8.27;;;18.60;92.10;;;;;;5005986;28;20513;-73
2021/10/19 11:31:19;;;;;;;13.05;9.10;;;18.60;92.10;;;;;;5007036;28;20026;-73
2021/10/19 11:33:46;;;;;;;13.85;9.55;;;18.60;92.20;;;;;;5003712;28;20389;-75
2021/10/19 11:36:13;;;;;;;13.30;8.70;;;18.60;92.20;;;;;;5007364;28;20027;-72
2021/10/19 11:38:49;;;;;;;13.95;9.50;;;18.60;92.20;;;;;;5025405;28;20535;-73
2021/10/19 11:41:19;;;;;;;13.50;9.32;;;18.60;92.00;;;;;;5006587;28;20495;-73
2021/10/19 11:43:47;;;;;;;12.35;8.90;;;18.60;92.00;;;;;;5008069;28;20351;-73
2021/10/19 11:46:16;;;;;;;12.02;9.52;;;18.70;92.00;;;;;;5004778;28;20457;-73
2021/10/19 11:48:42;;;;;;;13.32;9.30;;;18.80;91.80;;;;;;5006043;28;20061;-71
2021/10/19 11:51:12;;;;;;;15.30;10.10;;;19.10;91.60;;;;;;5006772;28;20026;-71
2021/10/19 11:53:39;;;;;;;15.20;10.38;;;19.10;91.20;;;;;;5001413;28;20069;-71
2021/10/19 11:56:06;;;;;;;17.33;13.75;;;19.20;90.70;;;;;;5004463;28;20030;-71
2021/10/19 11:58:32;;;;;;;17.88;9.93;;;19.20;90.20;;;;;;5005918;28;20080;-72
2021/10/19 12:00:59;;;;;;;15.70;10.07;;;19.10;89.90;;;;;;5002031;28;20030;-72
2021/10/19 12:03:31;;;;;;;14.13;10.20;;;19.10;90.10;;;;;;5002909;28;20033;-73
2021/10/19 12:05:58;;;;;;;14.85;10.50;;;19.00;90.20;;;;;;5003408;28;20386;-72
2021/10/19 12:08:29;;;;;;;19.75;11.85;;;19.00;90.60;;;;;;5005661;28;20027;-72
2021/10/19 12:10:55;;;;;;;15.60;10.68;;;18.90;90.90;;;;;;5003818;28;20444;-72
2021/10/19 12:13:25;;;;;;;15.88;10.73;;;18.90;91.00;;;;;;5007336;28;20541;-71
2021/10/19 12:15:55;;;;;;;15.27;10.05;;;18.90;91.10;;;;;;5002525;28;20033;-71
2021/10/19 12:18:21;;;;;;;15.52;11.07;;;19.00;91.10;;;;;;4997669;28;20041;-74
2021/10/19 12:20:48;;;;;;;16.38;11.00;;;19.10;90.70;;;;;;5002536;28;20045;-73
2021/10/19 12:23:17;;;;;;;20.35;11.98;;;19.30;90.20;;;;;;5003833;28;20077;-73
2021/10/19 12:25:47;;;;;;;16.65;11.25;;;19.40;89.70;;;;;;5001471;28;20124;-72
2021/10/19 12:28:21;;;;;;;17.05;11.63;;;19.50;89.10;;;;;;5008310;28;20029;-73